TimeCST,TemperatureF,Dew PointF,Humidity,Sea Level PressureIn,VisibilityMPH,Wind Direction,Wind SpeedMPH,Gust SpeedMPH,PrecipitationIn,Events,Conditions,WindDirDegrees,DateUTC
12:15 AM,37.0,25.3,63,30.04,10.0,WSW,8.1,-,N/A,,Clear,250,2012-11-19 06:15:00
12:55 AM,37.2,24.4,60,30.05,10.0,WSW,9.2,-,N/A,,Mostly Cloudy,240,2012-11-19 06:55:00
1:15 AM,36.5,24.8,63,30.06,10.0,SW,9.2,-,N/A,,Clear,230,2012-11-19 07:15:00
1:35 AM,36.3,24.8,63,30.05,10.0,SW,9.2,-,N/A,,Clear,230,2012-11-19 07:35:00
1:55 AM,35.1,24.8,66,30.05,10.0,WSW,10.4,-,N/A,,Clear,250,2012-11-19 07:55:00
2:15 AM,34.0,24.4,68,30.06,10.0,WSW,11.5,-,N/A,,Clear,240,2012-11-19 08:15:00
2:35 AM,34.3,24.6,68,30.07,10.0,SW,10.4,-,N/A,,Clear,230,2012-11-19 08:35:00
2:55 AM,34.7,24.8,67,30.08,10.0,SW,8.1,-,N/A,,Clear,230,2012-11-19 08:55:00
3:15 AM,34.5,24.8,68,30.08,10.0,SSW,8.1,-,N/A,,Clear,210,2012-11-19 09:15:00
3:35 AM,34.7,25.0,68,30.09,10.0,SW,9.2,-,N/A,,Clear,230,2012-11-19 09:35:00
3:55 AM,34.0,25.2,70,30.09,10.0,WSW,10.4,-,N/A,,Clear,240,2012-11-19 09:55:00
4:15 AM,34.0,25.2,70,30.09,10.0,WSW,9.2,-,N/A,,Mostly Cloudy,240,2012-11-19 10:15:00
4:35 AM,34.2,24.8,69,30.10,10.0,WSW,10.4,-,N/A,,Scattered Clouds,240,2012-11-19 10:35:00
4:55 AM,34.2,24.8,69,30.09,10.0,SW,10.4,-,N/A,,Scattered Clouds,230,2012-11-19 10:55:00
5:15 AM,34.0,24.8,69,30.10,10.0,SW,11.5,-,N/A,,Scattered Clouds,230,2012-11-19 11:15:00
5:35 AM,34.3,24.8,68,30.11,10.0,WSW,11.5,-,N/A,,Scattered Clouds,240,2012-11-19 11:35:00
5:55 AM,34.2,24.8,69,30.12,10.0,WSW,9.2,-,N/A,,Scattered Clouds,240,2012-11-19 11:55:00
6:15 AM,32.9,24.6,72,30.12,10.0,WSW,8.1,-,N/A,,Scattered Clouds,240,2012-11-19 12:15:00
6:35 AM,32.0,24.4,74,30.12,10.0,WSW,9.2,-,N/A,,Clear,240,2012-11-19 12:35:00
6:55 AM,32.5,24.4,72,30.14,10.0,WSW,10.4,-,N/A,,Clear,240,2012-11-19 12:55:00
7:15 AM,32.2,24.6,74,30.14,10.0,WSW,10.4,-,N/A,,Clear,240,2012-11-19 13:15:00
7:35 AM,33.8,25.3,71,30.15,10.0,WSW,10.4,-,N/A,,Clear,240,2012-11-19 13:35:00
7:55 AM,33.8,25.2,71,30.15,10.0,WSW,10.4,-,N/A,,Clear,240,2012-11-19 13:55:00
8:15 AM,34.3,25.7,71,30.15,10.0,SW,9.2,-,N/A,,Clear,230,2012-11-19 14:15:00
8:55 AM,38.8,26.6,61,30.18,10.0,WSW,9.2,-,N/A,,Clear,240,2012-11-19 14:55:00
9:15 AM,41.0,26.4,56,30.18,10.0,WSW,10.4,-,N/A,,Clear,240,2012-11-19 15:15:00
9:55 AM,46.9,27.0,46,30.19,10.0,WSW,8.1,-,N/A,,Clear,240,2012-11-19 15:55:00
10:15 AM,50.7,27.5,41,30.19,10.0,West,4.6,-,N/A,,Clear,260,2012-11-19 16:15:00
10:35 AM,58.8,27.7,31,30.19,10.0,NW,8.1,-,N/A,,Clear,320,2012-11-19 16:35:00
10:55 AM,62.1,27.3,27,30.19,10.0,NNW,5.8,-,N/A,,Clear,340,2012-11-19 16:55:00
11:15 AM,63.9,27.1,25,30.19,10.0,North,11.5,-,N/A,,Clear,350,2012-11-19 17:15:00
11:35 AM,65.1,26.4,23,30.19,10.0,NNW,6.9,-,N/A,,Clear,340,2012-11-19 17:35:00
11:55 AM,66.2,25.7,22,30.19,10.0,NNW,9.2,16.1,N/A,,Clear,340,2012-11-19 17:55:00
12:15 PM,66.2,25.9,22,30.18,10.0,North,9.2,-,N/A,,Clear,350,2012-11-19 18:15:00
12:35 PM,68.9,25.0,19,30.17,10.0,North,10.4,-,N/A,,Clear,350,2012-11-19 18:35:00
12:55 PM,69.3,22.3,17,30.17,10.0,North,13.8,21.9,N/A,,Clear,350,2012-11-19 18:55:00
1:15 PM,69.8,20.7,16,30.16,10.0,North,9.2,-,N/A,,Clear,360,2012-11-19 19:15:00
1:35 PM,70.0,20.1,15,30.15,10.0,NW,12.7,-,N/A,,Clear,320,2012-11-19 19:35:00
1:55 PM,70.2,20.7,15,30.15,10.0,NNW,9.2,-,N/A,,Clear,340,2012-11-19 19:55:00
2:15 PM,69.1,21.4,16,30.15,10.0,NNW,9.2,-,N/A,,Clear,340,2012-11-19 20:15:00
2:35 PM,68.9,21.0,16,30.15,10.0,North,6.9,-,N/A,,Clear,360,2012-11-19 20:35:00
2:55 PM,67.8,21.7,17,30.15,10.0,NNW,9.2,-,N/A,,Clear,340,2012-11-19 20:55:00
3:15 PM,67.8,21.9,18,30.15,10.0,NNW,6.9,-,N/A,,Clear,340,2012-11-19 21:15:00
3:35 PM,67.8,22.1,18,30.15,10.0,North,6.9,-,N/A,,Clear,350,2012-11-19 21:35:00
3:55 PM,66.7,22.6,19,30.15,10.0,North,6.9,-,N/A,,Clear,360,2012-11-19 21:55:00
4:15 PM,66.2,22.6,19,30.15,10.0,North,3.5,-,N/A,,Clear,350,2012-11-19 22:15:00
4:35 PM,63.1,22.8,21,30.15,10.0,NNW,5.8,-,N/A,,Clear,330,2012-11-19 22:35:00
4:55 PM,61.9,22.8,22,30.15,10.0,Calm,Calm,-,N/A,,Clear,0,2012-11-19 22:55:00
5:15 PM,59.9,23.5,25,30.15,10.0,Calm,Calm,-,N/A,,Clear,0,2012-11-19 23:15:00
5:35 PM,58.6,23.5,26,30.15,10.0,ESE,3.5,-,N/A,,Clear,110,2012-11-19 23:35:00
5:55 PM,53.6,23.9,32,30.15,10.0,East,4.6,-,N/A,,Clear,90,2012-11-19 23:55:00
6:35 PM,51.8,24.8,35,30.18,10.0,SE,6.9,-,N/A,,Clear,140,2012-11-20 00:35:00
6:55 PM,46.4,25.2,43,30.18,10.0,WSW,3.5,-,N/A,,Clear,250,2012-11-20 00:55:00
7:15 PM,41.7,24.8,51,30.19,10.0,WSW,5.8,-,N/A,,Clear,250,2012-11-20 01:15:00
7:35 PM,43.9,25.2,48,30.19,10.0,SW,5.8,-,N/A,,Clear,220,2012-11-20 01:35:00
7:55 PM,45.7,25.3,45,30.19,10.0,SW,3.5,-,N/A,,Clear,220,2012-11-20 01:55:00
8:15 PM,43.0,24.8,49,30.20,10.0,SW,6.9,-,N/A,,Clear,220,2012-11-20 02:15:00
8:35 PM,40.3,24.6,54,30.20,10.0,WSW,5.8,-,N/A,,Clear,250,2012-11-20 02:35:00
8:55 PM,41.0,25.2,53,30.21,10.0,WSW,8.1,-,N/A,,Clear,240,2012-11-20 02:55:00
9:15 PM,39.4,24.8,56,30.21,10.0,WSW,6.9,-,N/A,,Clear,240,2012-11-20 03:15:00
9:35 PM,39.4,25.2,57,30.21,10.0,SW,8.1,-,N/A,,Clear,230,2012-11-20 03:35:00
9:55 PM,39.9,25.2,56,30.21,10.0,WSW,8.1,-,N/A,,Clear,240,2012-11-20 03:55:00
10:15 PM,38.3,24.8,58,30.21,10.0,WSW,6.9,-,N/A,,Clear,240,2012-11-20 04:15:00
10:55 PM,38.3,24.8,58,30.21,10.0,SW,4.6,-,N/A,,Clear,230,2012-11-20 04:55:00
11:15 PM,36.7,24.4,61,30.21,10.0,WSW,5.8,-,N/A,,Clear,240,2012-11-20 05:15:00
11:35 PM,35.8,24.6,64,30.21,10.0,Calm,Calm,-,N/A,,Clear,0,2012-11-20 05:35:00
11:55 PM,37.0,25.3,63,30.21,10.0,SW,4.6,-,N/A,,Clear,230,2012-11-20 05:55:00